Time;durP1;ratioP1;P1;durP2;ratioP2;P2;SDS_P1;SDS_P2;PMS_P1;PMS_P2;Temp;Humidity;BMP_temperature;BMP_pressure;BME280_temperature;BME280_humidity;BME280_pressure;Samples;Min_cycle;Max_cycle;Signal;HPM_P1;HPM_P2
2022/11/28 00:01:12;;;;;;;0.10;0.10;;;;;;;9.47;76.49;100978.91;5062090;28;20033;-80
2022/11/28 00:03:38;;;;;;;0.10;0.10;;;;;;;9.43;77.17;100986.00;5063401;28;20098;-80
2022/11/28 00:06:06;;;;;;;0.20;0.20;;;;;;;9.48;76.93;100975.38;5070877;28;20040;-80
2022/11/28 00:08:33;;;;;;;0.20;0.20;;;;;;;9.50;77.04;100974.44;5068676;28;20025;-80
2022/11/28 00:11:04;;;;;;;0.10;0.10;;;;;;;9.54;76.95;100976.19;5063333;28;20041;-79
2022/11/28 00:13:31;;;;;;;0.10;0.10;;;;;;;9.54;77.11;100970.00;5063396;28;20033;-80
2022/11/28 00:15:59;;;;;;;0.10;0.10;;;;;;;9.57;76.92;100963.78;5063711;28;20040;-80
2022/11/28 00:18:25;;;;;;;0.35;0.35;;;;;;;9.57;77.15;100959.41;5067973;28;20116;-80
2022/11/28 00:20:52;;;;;;;0.30;0.30;;;;;;;9.59;77.15;100954.94;5066772;28;20553;-80
2022/11/28 00:23:18;;;;;;;0.10;0.10;;;;;;;9.61;77.09;100955.81;5069621;28;20039;-80
2022/11/28 00:25:44;;;;;;;0.10;0.10;;;;;;;9.64;77.10;100953.09;5065755;28;20068;-80
2022/11/28 00:28:10;;;;;;;0.10;0.10;;;;;;;9.63;77.19;100959.31;5066317;28;20028;-80
2022/11/28 00:30:37;;;;;;;0.30;0.30;;;;;;;9.69;76.92;100972.44;5064402;28;20102;-80
2022/11/28 00:33:03;;;;;;;0.10;0.10;;;;;;;9.68;77.08;100962.75;5064010;28;20048;-80
2022/11/28 00:35:30;;;;;;;0.10;0.10;;;;;;;9.68;76.94;100962.75;5066926;28;20031;-80
2022/11/28 00:37:56;;;;;;;0.10;0.10;;;;;;;9.69;77.00;100963.63;5065267;28;20025;-80
2022/11/28 00:40:22;;;;;;;0.10;0.10;;;;;;;9.67;77.38;100955.72;5064240;28;20404;-80
2022/11/28 00:42:48;;;;;;;0.30;0.30;;;;;;;9.71;77.08;100957.41;5062842;28;20462;-80
2022/11/28 00:45:14;;;;;;;0.10;0.10;;;;;;;9.70;77.41;100944.22;5062685;28;20108;-80
2022/11/28 00:47:40;;;;;;;0.28;0.28;;;;;;;9.76;77.04;100952.06;5066371;28;20025;-80
2022/11/28 00:50:07;;;;;;;0.57;0.57;;;;;;;9.76;77.51;100948.53;5069739;28;20021;-80
2022/11/28 00:52:33;;;;;;;0.20;0.20;;;;;;;9.78;77.06;100946.72;5071018;28;20066;-80
2022/11/28 00:54:59;;;;;;;0.40;0.40;;;;;;;9.77;77.31;100944.97;5060068;28;20070;-79
2022/11/28 00:57:25;;;;;;;2.28;0.60;;;;;;;9.78;77.30;100941.44;5056983;28;20030;-80
2022/11/28 00:59:51;;;;;;;2.05;0.85;;;;;;;9.79;77.37;100943.19;5060128;28;20037;-79
2022/11/28 01:02:17;;;;;;;0.10;0.10;;;;;;;9.80;77.32;100937.00;5057017;28;20029;-80
2022/11/28 01:04:43;;;;;;;0.10;0.10;;;;;;;9.80;77.22;100929.94;5061591;28;20041;-80
2022/11/28 01:07:10;;;;;;;0.10;0.10;;;;;;;9.82;77.12;100937.84;5060089;28;20063;-80
2022/11/28 01:09:36;;;;;;;0.10;0.10;;;;;;;9.83;77.19;100923.72;5055476;28;20114;-80
2022/11/28 01:12:02;;;;;;;0.10;0.10;;;;;;;9.84;77.39;100925.47;5055328;28;20017;-80
2022/11/28 01:14:29;;;;;;;0.20;0.20;;;;;;;9.85;77.48;100932.53;5051272;28;20067;-80
2022/11/28 01:16:55;;;;;;;1.15;0.95;;;;;;;9.87;77.02;100928.94;5045437;28;20489;-80
2022/11/28 01:19:22;;;;;;;1.17;1.08;;;;;;;9.87;77.15;100923.66;5048383;28;20330;-81
2022/11/28 01:21:48;;;;;;;0.20;0.20;;;;;;;9.87;77.28;100923.66;5057343;28;20048;-79
2022/11/28 01:24:15;;;;;;;1.08;1.08;;;;;;;9.90;77.22;100920.09;5058924;28;20036;-80
2022/11/28 01:26:42;;;;;;;0.20;0.20;;;;;;;9.94;77.33;100916.47;5045110;28;20041;-80
2022/11/28 01:29:08;;;;;;;0.35;0.35;;;;;;;9.96;77.48;100914.69;5051943;28;20037;-79
2022/11/28 01:31:34;;;;;;;0.10;0.10;;;;;;;9.96;77.61;100919.97;5047422;28;20084;-80
2022/11/28 01:34:00;;;;;;;0.38;0.38;;;;;;;9.99;77.33;100919.94;5049959;28;20076;-80
2022/11/28 01:36:27;;;;;;;0.10;0.10;;;;;;;10.00;77.43;100916.38;5048440;28;20079;-80
2022/11/28 01:38:54;;;;;;;0.80;0.80;;;;;;;10.00;77.82;100919.03;5045984;28;20409;-80
2022/11/28 01:41:24;;;;;;;0.10;0.10;;;;;;;10.08;77.49;100912.72;5045854;28;20025;-80
2022/11/28 01:46:34;;;;;;;0.20;0.20;;;;;;;10.06;78.01;100922.50;5068819;28;20418;-81
2022/11/28 01:49:06;;;;;;;0.43;0.43;;;;;;;10.10;77.84;100921.53;5054330;28;20409;-81
2022/11/28 01:51:34;;;;;;;0.20;0.20;;;;;;;10.14;77.88;100923.22;5054477;28;20041;-80
2022/11/28 01:54:00;;;;;;;0.20;0.20;;;;;;;10.18;77.87;100917.84;5051508;28;20367;-80
2022/11/28 01:56:31;;;;;;;1.30;1.20;;;;;;;10.22;77.47;100920.44;5053569;28;20033;-81
2022/11/28 01:59:03;;;;;;;0.20;0.20;;;;;;;10.23;77.38;100914.25;5050858;28;20140;-81
2022/11/28 02:01:29;;;;;;;0.37;0.37;;;;;;;10.25;77.66;100902.72;5051292;28;20535;-81
2022/11/28 02:03:58;;;;;;;1.13;0.95;;;;;;;10.27;77.05;100900.94;5052269;28;20441;-80
2022/11/28 02:06:25;;;;;;;1.58;0.57;;;;;;;10.32;77.40;100904.38;5051578;28;20036;-80
2022/11/28 02:08:53;;;;;;;0.10;0.10;;;;;;;10.33;77.64;100902.59;5051106;28;20029;-81
2022/11/28 02:11:40;;;;;;;0.57;0.57;;;;;;;10.35;77.80;100898.13;5051429;28;20049;-81
2022/11/28 02:14:35;;;;;;;0.10;0.10;;;;;;;10.35;77.49;100895.50;5050032;28;20033;-80
2022/11/28 02:26:18;;;;;;;0.10;0.10;;;;;;;10.42;77.98;100906.88;5110406;27;20385;-79
2022/11/28 02:29:18;;;;;;;0.20;0.20;;;;;;;10.44;77.83;100903.31;5111847;28;20074;-81
2022/11/28 02:35:28;;;;;;;0.10;0.10;;;;;;;10.51;77.52;100904.06;5073384;28;20401;-80
2022/11/28 02:40:48;;;;;;;0.10;0.10;;;;;;;10.41;77.63;100900.72;5097882;27;1162089;-80
2022/11/28 02:46:12;;;;;;;0.10;0.10;;;;;;;10.48;77.55;100912.06;5072174;28;20382;-80
2022/11/28 02:51:24;;;;;;;0.23;0.23;;;;;;;10.43;77.61;100905.97;5111185;27;1193242;-80
2022/11/28 02:53:52;;;;;;;0.20;0.20;;;;;;;10.41;77.63;100900.72;5131821;28;20406;-81
2022/11/28 02:56:18;;;;;;;0.65;0.65;;;;;;;10.42;77.84;100897.16;5131893;28;20031;-80
2022/11/28 02:58:44;;;;;;;0.30;0.30;;;;;;;10.43;77.43;100898.03;5130822;28;20160;-81
2022/11/28 03:01:18;;;;;;;0.17;0.17;;;;;;;10.41;77.26;100903.38;5129367;28;20042;-80
2022/11/28 03:04:13;;;;;;;0.13;0.13;;;;;;;10.45;77.99;100897.09;5131996;28;20027;-81
2022/11/28 03:12:58;;;;;;;0.10;0.10;;;;;;;10.42;77.56;100899.81;5101984;27;1178297;-80
2022/11/28 03:15:38;;;;;;;1.67;1.55;;;;;;;10.44;77.54;100899.78;5116234;27;20047;-80
2022/11/28 03:18:19;;;;;;;1.52;1.27;;;;;;;10.43;77.38;100890.97;5120960;28;20459;-80
2022/11/28 03:20:52;;;;;;;1.55;0.82;;;;;;;10.43;77.63;100893.63;5111126;28;20023;-80
2022/11/28 03:26:18;;;;;;;0.10;0.10;;;;;;;10.35;77.94;100890.19;5113501;27;20056;-80
2022/11/28 03:28:59;;;;;;;0.13;0.13;;;;;;;10.40;77.63;100896.31;5106260;28;20827;-80
2022/11/28 03:31:35;;;;;;;0.10;0.10;;;;;;;10.36;77.83;100892.84;5113069;28;20031;-80
2022/11/28 03:34:05;;;;;;;0.43;0.43;;;;;;;10.40;77.64;100903.41;5108086;28;20025;-80
2022/11/28 03:36:40;;;;;;;0.20;0.20;;;;;;;10.41;77.67;100899.84;5108865;28;20518;-80
2022/11/28 03:39:12;;;;;;;0.90;0.90;;;;;;;10.38;77.75;100899.88;5102629;28;20476;-80
2022/11/28 03:41:46;;;;;;;0.20;0.20;;;;;;;10.36;77.55;100898.13;5105741;28;20043;-80
2022/11/28 03:44:21;;;;;;;0.40;0.40;;;;;;;10.31;77.87;100905.25;5106649;28;21013;-81
2022/11/28 03:46:49;;;;;;;0.30;0.30;;;;;;;10.32;77.76;100907.03;5100259;28;20040;-81
2022/11/28 03:49:26;;;;;;;0.30;0.30;;;;;;;10.30;77.57;100897.34;5105018;28;20028;-80
2022/11/28 03:51:58;;;;;;;0.20;0.20;;;;;;;10.32;77.43;100900.88;5106321;28;20035;-81
2022/11/28 03:59:47;;;;;;;0.95;0.95;;;;;;;10.26;77.71;100903.63;5049129;28;20135;-80
2022/11/28 04:02:39;;;;;;;0.20;0.20;;;;;;;10.26;77.21;100900.97;5042093;28;20033;-80
2022/11/28 04:07:50;;;;;;;0.10;0.10;;;;;;;10.23;77.42;100901.00;5100306;27;20938;-81
2022/11/28 04:10:40;;;;;;;0.50;0.50;;;;;;;10.28;77.48;100899.16;5097228;28;20399;-80
2022/11/28 04:24:22;;;;;;;0.10;0.10;;;;;;;10.25;77.45;100913.31;5053874;28;20387;-80
2022/11/28 04:26:56;;;;;;;1.23;1.23;;;;;;;10.25;77.35;100909.81;5049091;28;20124;-80
2022/11/28 04:29:25;;;;;;;0.10;0.10;;;;;;;10.19;77.29;100906.38;5049291;28;20032;-81
2022/11/28 04:31:56;;;;;;;0.20;0.20;;;;;;;10.15;77.37;100914.38;5051085;28;20022;-81
2022/11/28 04:34:24;;;;;;;0.10;0.10;;;;;;;10.14;77.58;100915.28;5047875;28;20075;-81
2022/11/28 04:36:53;;;;;;;0.10;0.10;;;;;;;10.13;77.43;100917.06;5052967;28;20032;-81
2022/11/28 04:39:24;;;;;;;0.88;0.80;;;;;;;10.09;77.42;100917.13;5051737;28;20029;-81
2022/11/28 04:41:56;;;;;;;0.80;0.80;;;;;;;10.13;77.50;100921.47;5052609;28;20025;-81
2022/11/28 04:44:34;;;;;;;0.13;0.13;;;;;;;10.15;77.48;100919.69;5050527;28;20056;-81
2022/11/28 04:47:00;;;;;;;0.20;0.20;;;;;;;10.14;77.37;100917.94;5049646;28;20051;-81
2022/11/28 04:49:29;;;;;;;0.10;0.10;;;;;;;10.16;77.47;100917.00;5050845;28;20021;-81
2022/11/28 04:55:06;;;;;;;1.55;0.50;;;;;;;10.20;77.19;100921.38;5056950;28;20407;-81
2022/11/28 04:57:38;;;;;;;0.68;0.68;;;;;;;10.13;77.39;100921.47;5047710;28;20540;-81
2022/11/28 05:00:08;;;;;;;0.17;0.17;;;;;;;10.17;77.36;100917.88;5047663;28;20033;-80
2022/11/28 05:02:36;;;;;;;0.75;0.75;;;;;;;10.16;77.27;100916.13;5043516;28;20029;-79
2022/11/28 05:05:08;;;;;;;0.10;0.10;;;;;;;10.12;77.64;100919.72;5042858;28;20025;-80
2022/11/28 05:07:34;;;;;;;;;;;;;;;10.23;77.03;100917.78;5040927;28;20036;-81
2022/11/28 05:10:00;;;;;;;0.30;0.30;;;;;;;10.10;77.30;100921.53;5047508;28;19970;-80
2022/11/28 05:12:27;;;;;;;0.20;0.20;;;;;;;10.12;77.52;100930.31;5046502;28;20029;-80
2022/11/28 05:14:53;;;;;;;0.30;0.30;;;;;;;10.13;77.23;100932.94;5038182;28;20034;-80
2022/11/28 05:17:19;;;;;;;0.28;0.28;;;;;;;10.14;77.53;100939.09;5039248;28;20037;-80
2022/11/28 05:19:45;;;;;;;0.10;0.10;;;;;;;10.12;77.26;100943.53;5040754;28;20029;-80
2022/11/28 05:22:11;;;;;;;0.10;0.10;;;;;;;10.14;77.38;100949.69;5041352;28;20026;-80
2022/11/28 05:24:37;;;;;;;1.73;0.90;;;;;;;10.12;77.46;100951.50;5043176;28;20025;-80
2022/11/28 05:27:03;;;;;;;0.30;0.30;;;;;;;10.11;77.56;100952.41;5040922;28;20405;-80
2022/11/28 05:29:29;;;;;;;0.20;0.20;;;;;;;10.16;77.13;100947.91;5040491;28;20509;-80
2022/11/28 05:31:55;;;;;;;0.10;0.10;;;;;;;10.17;77.42;100949.66;5037255;28;20402;-80
2022/11/28 05:34:21;;;;;;;1.75;1.15;;;;;;;10.15;77.39;100954.09;5037981;28;21873;-80
2022/11/28 05:36:47;;;;;;;0.20;0.20;;;;;;;10.18;77.45;100951.38;5038660;28;20072;-81
2022/11/28 05:39:13;;;;;;;1.10;1.10;;;;;;;10.16;77.46;100955.84;5040317;28;20417;-80
2022/11/28 05:41:39;;;;;;;0.20;0.20;;;;;;;10.18;77.26;100951.38;5037497;28;20525;-80
2022/11/28 05:44:05;;;;;;;0.40;0.40;;;;;;;10.14;77.53;100953.25;5042152;28;20476;-80
2022/11/28 05:46:32;;;;;;;0.80;0.80;;;;;;;10.11;77.59;100955.91;5041498;28;20064;-80
2022/11/28 05:48:58;;;;;;;0.75;0.75;;;;;;;10.14;77.33;100949.69;5035410;28;20037;-79
2022/11/28 05:51:24;;;;;;;0.43;0.43;;;;;;;10.16;77.50;100955.84;5039319;28;20091;-80
2022/11/28 05:53:50;;;;;;;0.20;0.20;;;;;;;10.21;77.28;100959.28;5040635;28;20033;-80
2022/11/28 05:56:21;;;;;;;0.28;0.28;;;;;;;10.18;77.35;100949.63;5040163;28;20037;-79
2022/11/28 05:58:47;;;;;;;0.20;0.20;;;;;;;10.22;77.31;100950.47;5040426;28;20627;-80
2022/11/28 06:01:16;;;;;;;0.98;0.98;;;;;;;10.24;77.23;100956.59;5039576;28;20052;-80
2022/11/28 06:03:43;;;;;;;3.03;0.70;;;;;;;10.20;77.32;100954.91;5040036;28;20028;-80
2022/11/28 06:06:14;;;;;;;0.70;0.70;;;;;;;10.20;77.41;100953.13;5024812;28;20022;-80
2022/11/28 06:08:41;;;;;;;0.17;0.17;;;;;;;10.19;77.58;100947.84;5026707;28;20060;-80
2022/11/28 06:11:07;;;;;;;0.95;0.95;;;;;;;10.19;77.57;100953.13;5028825;28;20037;-80
2022/11/28 06:13:34;;;;;;;0.15;0.15;;;;;;;10.23;77.57;100944.28;5024903;28;20044;-80
2022/11/28 06:16:00;;;;;;;0.50;0.50;;;;;;;10.22;77.54;100947.81;5025975;28;20123;-81
2022/11/28 06:18:26;;;;;;;0.17;0.17;;;;;;;10.25;77.32;100942.44;5028662;28;20088;-80
2022/11/28 06:20:53;;;;;;;0.20;0.20;;;;;;;10.26;77.46;100940.69;5023351;28;20445;-80
2022/11/28 06:23:19;;;;;;;0.40;0.40;;;;;;;10.26;77.16;100949.50;5030905;28;20100;-80
2022/11/28 06:25:45;;;;;;;0.22;0.22;;;;;;;10.25;77.47;100960.97;5034098;28;20034;-80
2022/11/28 06:28:11;;;;;;;0.10;0.10;;;;;;;10.23;77.52;100969.84;5035586;28;20037;-80
2022/11/28 06:30:37;;;;;;;0.10;0.10;;;;;;;10.23;77.51;100970.75;5033405;28;20017;-80
2022/11/28 06:33:03;;;;;;;0.22;0.22;;;;;;;10.25;77.50;100963.63;5023970;28;20405;-81
2022/11/28 06:35:29;;;;;;;0.45;0.45;;;;;;;10.27;77.52;100969.78;5028813;28;20075;-81
2022/11/28 06:37:55;;;;;;;1.00;0.90;;;;;;;10.24;77.55;100961.88;5031943;28;20032;-80
2022/11/28 06:40:21;;;;;;;0.20;0.20;;;;;;;10.26;77.67;100964.53;5030261;28;20069;-81
2022/11/28 06:42:49;;;;;;;1.00;1.00;;;;;;;10.30;77.43;100975.00;5029526;28;20034;-81
2022/11/28 06:45:15;;;;;;;1.23;1.00;;;;;;;10.32;77.32;100975.00;5020127;28;20045;-80
2022/11/28 06:47:41;;;;;;;0.10;0.10;;;;;;;10.31;77.36;100968.81;5019397;28;20647;-80
2022/11/28 06:50:08;;;;;;;0.20;0.20;;;;;;;10.31;77.48;100970.63;5024172;28;20045;-80
2022/11/28 06:52:35;;;;;;;0.60;0.60;;;;;;;10.31;77.48;100982.06;5026778;28;20040;-80
2022/11/28 06:55:01;;;;;;;0.88;0.85;;;;;;;10.30;77.58;100977.66;5028067;28;20033;-81
2022/11/28 06:57:27;;;;;;;0.30;0.30;;;;;;;10.32;77.55;100981.19;5030143;28;20092;-81
2022/11/28 06:59:53;;;;;;;0.10;0.10;;;;;;;10.32;77.69;100986.47;5024063;28;20096;-81
2022/11/28 07:02:19;;;;;;;1.02;1.02;;;;;;;10.36;77.79;100987.34;5028440;28;20367;-81
2022/11/28 07:04:45;;;;;;;0.65;0.65;;;;;;;10.36;77.75;100993.50;5034626;28;20532;-81
2022/11/28 07:07:11;;;;;;;0.38;0.38;;;;;;;10.36;77.69;100993.50;5033420;28;20045;-81
2022/11/28 07:09:37;;;;;;;0.63;0.63;;;;;;;10.35;77.94;100990.84;5030148;28;20038;-82
2022/11/28 07:12:03;;;;;;;0.10;0.10;;;;;;;10.38;77.51;100995.25;5031706;28;20034;-82
2022/11/28 07:14:32;;;;;;;0.25;0.25;;;;;;;10.40;77.88;100993.44;5031045;28;20038;-82
2022/11/28 07:16:59;;;;;;;0.38;0.38;;;;;;;10.38;77.83;100990.84;5029928;28;20405;-82
2022/11/28 07:19:25;;;;;;;0.52;0.52;;;;;;;10.40;77.50;101001.41;5017875;28;20460;-82
2022/11/28 07:21:51;;;;;;;0.30;0.30;;;;;;;10.43;77.87;100998.69;5024432;28;20037;-82
2022/11/28 07:24:18;;;;;;;0.88;0.82;;;;;;;10.44;77.48;101001.34;5025386;28;20033;-82
2022/11/28 07:26:45;;;;;;;0.20;0.20;;;;;;;10.40;78.01;101001.41;5020233;28;20018;-82
2022/11/28 07:29:16;;;;;;;0.17;0.17;;;;;;;10.44;77.78;101000.44;5020776;28;20029;-82
2022/11/28 07:31:43;;;;;;;1.00;1.00;;;;;;;10.43;78.00;101004.88;5025953;28;20486;-82
2022/11/28 07:34:10;;;;;;;0.35;0.35;;;;;;;10.43;77.83;101009.28;5031865;28;20041;-82
2022/11/28 07:36:37;;;;;;;0.30;0.30;;;;;;;10.44;78.17;101009.28;5038375;28;20034;-82
2022/11/28 07:39:07;;;;;;;0.30;0.30;;;;;;;10.46;77.94;101011.91;5021341;28;20033;-82
2022/11/28 07:41:33;;;;;;;0.57;0.57;;;;;;;10.46;77.92;101011.91;5026367;28;20075;-83
2022/11/28 07:44:02;;;;;;;0.17;0.17;;;;;;;10.46;78.13;101020.69;5030983;28;20021;-83
2022/11/28 07:46:30;;;;;;;0.75;0.75;;;;;;;10.51;77.75;101012.69;5031980;28;20037;-82
2022/11/28 07:48:56;;;;;;;0.30;0.30;;;;;;;10.51;78.04;101015.34;5025882;28;20128;-83
2022/11/28 07:51:26;;;;;;;1.70;1.60;;;;;;;10.55;78.09;101019.66;5025167;28;20114;-83
2022/11/28 07:53:53;;;;;;;0.50;0.50;;;;;;;10.56;77.99;101016.13;5036852;28;20017;-82
2022/11/28 07:56:22;;;;;;;0.30;0.30;;;;;;;10.58;77.83;101019.63;5027071;28;20100;-82
2022/11/28 07:58:49;;;;;;;3.40;2.58;;;;;;;10.59;77.93;101032.00;5016544;28;20037;-82
2022/11/28 08:01:19;;;;;;;0.98;0.95;;;;;;;10.60;78.22;101027.56;5018436;28;20026;-82
2022/11/28 08:03:46;;;;;;;1.10;1.02;;;;;;;10.60;77.91;101031.06;5030232;28;20021;-82
2022/11/28 08:06:13;;;;;;;0.10;0.10;;;;;;;10.64;77.93;101029.22;5022414;28;20470;-82
2022/11/28 08:08:40;;;;;;;0.15;0.15;;;;;;;10.63;77.86;101024.81;5028736;28;20486;-82
2022/11/28 08:11:08;;;;;;;0.47;0.38;;;;;;;10.65;78.04;101031.88;5024339;28;20029;-81
2022/11/28 08:13:36;;;;;;;3.28;1.33;;;;;;;10.66;78.05;101033.59;5029770;28;20033;-81
2022/11/28 08:16:07;;;;;;;1.00;0.68;;;;;;;10.67;77.94;101035.34;5032284;28;20044;-82
2022/11/28 08:18:34;;;;;;;1.45;1.30;;;;;;;10.68;77.73;101037.13;5019905;28;20404;-83
2022/11/28 08:21:07;;;;;;;0.22;0.22;;;;;;;10.68;78.03;101044.19;5015570;28;20026;-82
2022/11/28 08:23:35;;;;;;;0.20;0.20;;;;;;;10.67;78.30;101038.00;5027452;28;20033;-81
2022/11/28 08:26:03;;;;;;;1.50;1.45;;;;;;;10.75;77.64;101037.00;5031150;28;20256;-81
2022/11/28 08:28:30;;;;;;;0.20;0.20;;;;;;;10.76;77.87;101038.75;5021762;28;20060;-81
2022/11/28 08:30:58;;;;;;;0.20;0.20;;;;;;;10.75;77.84;101031.72;5021075;28;20694;-82
2022/11/28 08:33:25;;;;;;;0.10;0.10;;;;;;;10.73;77.70;101030.84;5025874;28;20025;-82
2022/11/28 08:35:51;;;;;;;0.40;0.40;;;;;;;10.75;77.55;101029.06;5028722;28;20037;-81
2022/11/28 08:38:18;;;;;;;2.63;2.45;;;;;;;10.76;77.75;101033.47;5014846;28;20037;-81
2022/11/28 08:40:44;;;;;;;0.85;0.85;;;;;;;10.77;77.51;101035.22;5028939;28;20033;-81
2022/11/28 08:43:10;;;;;;;0.10;0.10;;;;;;;10.81;77.80;101031.59;5028334;28;20091;-81
2022/11/28 08:45:37;;;;;;;0.50;0.50;;;;;;;10.81;78.13;101031.59;5023022;28;20411;-81
2022/11/28 08:48:04;;;;;;;2.30;2.15;;;;;;;10.86;77.67;101045.63;5030703;28;20056;-82
2022/11/28 08:50:30;;;;;;;0.20;0.20;;;;;;;10.86;78.04;101039.47;5032590;28;20460;-81
2022/11/28 08:52:56;;;;;;;0.10;0.10;;;;;;;10.89;77.78;101047.34;5032408;28;20059;-81
2022/11/28 08:55:22;;;;;;;0.22;0.22;;;;;;;10.92;77.66;101048.19;5035183;28;20081;-81
2022/11/28 08:57:48;;;;;;;0.30;0.30;;;;;;;10.94;77.62;101043.72;5027710;28;20034;-81
2022/11/28 09:00:15;;;;;;;0.28;0.28;;;;;;;10.96;77.88;101041.91;5052029;28;20081;-81
2022/11/28 09:02:41;;;;;;;3.35;1.27;;;;;;;10.99;78.00;101039.22;5053522;28;20068;-81
2022/11/28 09:05:07;;;;;;;0.77;0.77;;;;;;;10.99;78.27;101046.28;5033470;28;20037;-81
2022/11/28 09:07:34;;;;;;;1.80;1.10;;;;;;;11.01;78.17;101049.78;5033971;28;20112;-81
2022/11/28 09:10:00;;;;;;;3.30;1.10;;;;;;;11.03;77.73;101045.34;5034482;28;20037;-81
2022/11/28 09:12:26;;;;;;;1.10;1.10;;;;;;;11.05;78.03;101048.81;5046515;28;20107;-81
2022/11/28 09:14:52;;;;;;;0.55;0.55;;;;;;;11.09;78.24;101054.94;5038410;28;20532;-81
2022/11/28 09:17:18;;;;;;;7.07;2.47;;;;;;;11.12;77.73;101047.81;5031042;28;20148;-81
2022/11/28 09:19:44;;;;;;;0.68;0.68;;;;;;;11.16;77.49;101035.38;5031711;28;20088;-81
2022/11/28 09:22:10;;;;;;;1.25;1.05;;;;;;;11.18;78.07;101033.56;5035571;28;20048;-81
2022/11/28 09:24:36;;;;;;;0.25;0.25;;;;;;;11.23;77.83;101044.97;5047762;28;20036;-81
2022/11/28 09:27:02;;;;;;;0.73;0.73;;;;;;;11.28;78.05;101048.38;5034987;28;20428;-81
2022/11/28 09:29:28;;;;;;;1.60;1.60;;;;;;;11.28;78.02;101052.84;5026286;28;20117;-81
2022/11/28 09:31:54;;;;;;;5.35;3.15;;;;;;;11.28;78.32;101059.00;5030380;28;20030;-81
2022/11/28 09:34:20;;;;;;;0.52;0.52;;;;;;;11.33;77.59;101056.25;5034068;28;20033;-81
2022/11/28 09:36:48;;;;;;;3.78;3.47;;;;;;;11.31;78.01;101058.94;5040688;28;20045;-80
2022/11/28 09:39:15;;;;;;;0.28;0.28;;;;;;;11.37;78.00;101051.78;5036451;28;20025;-81
2022/11/28 09:42:07;;;;;;;1.38;1.30;;;;;;;11.47;78.00;101059.50;5041376;28;20068;-81
2022/11/28 09:44:42;;;;;;;2.38;2.20;;;;;;;11.45;78.44;101060.44;5040379;28;20433;-81
2022/11/28 09:47:23;;;;;;;6.45;1.17;;;;;;;11.47;78.28;101054.19;5041232;28;20034;-81
2022/11/28 09:49:55;;;;;;;2.20;2.10;;;;;;;11.52;78.02;101062.06;5039132;28;20104;-80
2022/11/28 09:52:47;;;;;;;1.85;1.33;;;;;;;11.64;77.81;101061.81;5040920;28;20076;-80
2022/11/28 09:57:55;;;;;;;0.70;0.70;;;;;;;11.68;78.22;101064.41;5099402;27;1173912;-80
2022/11/28 10:00:31;;;;;;;0.68;0.68;;;;;;;11.70;77.90;101059.94;5115873;27;20075;-81
2022/11/28 10:11:29;;;;;;;0.37;0.37;;;;;;;11.87;78.07;101071.06;5100395;27;1178718;-81
2022/11/28 10:19:15;;;;;;;3.83;0.63;;;;;;;11.85;77.55;101075.53;5115760;27;20371;-82
2022/11/28 10:21:46;;;;;;;1.08;1.08;;;;;;;11.88;77.37;101070.16;5095325;28;20032;-82
2022/11/28 10:24:21;;;;;;;0.30;0.30;;;;;;;11.93;78.02;101078.03;5104910;28;20500;-81
2022/11/28 10:26:53;;;;;;;2.72;2.03;;;;;;;11.94;77.81;101071.81;5101602;28;20281;-81
2022/11/28 10:29:40;;;;;;;0.30;0.30;;;;;;;12.02;77.89;101074.34;5090608;28;20092;-82
2022/11/28 10:32:13;;;;;;;0.30;0.30;;;;;;;12.03;77.69;101068.13;5091491;28;20032;-80
2022/11/28 10:34:47;;;;;;;0.57;0.57;;;;;;;12.11;77.47;101071.44;5093877;28;20024;-80
2022/11/28 10:37:24;;;;;;;0.20;0.20;;;;;;;12.10;77.15;101077.66;5089880;28;20524;-80
2022/11/28 10:39:50;;;;;;;1.90;1.80;;;;;;;12.10;77.78;101075.91;5089467;28;20028;-80
2022/11/28 10:42:34;;;;;;;0.50;0.50;;;;;;;12.17;76.97;101092.56;5092166;28;20518;-80
2022/11/28 10:48:14;;;;;;;0.10;0.10;;;;;;;12.30;76.97;101088.72;5102550;27;1179460;-81
2022/11/28 10:59:03;;;;;;;1.15;1.15;;;;;;;12.58;77.41;101093.38;5111012;27;21040;-81
2022/11/28 11:01:34;;;;;;;1.77;1.67;;;;;;;12.48;76.65;101097.16;5096974;28;20028;-80
2022/11/28 11:04:01;;;;;;;0.40;0.40;;;;;;;12.40;76.56;101100.00;5097602;28;20455;-81
2022/11/28 11:06:27;;;;;;;1.75;1.45;;;;;;;12.36;75.97;101094.81;5091930;28;20063;-81
2022/11/28 11:08:53;;;;;;;0.20;0.20;;;;;;;12.40;76.73;101099.13;5090188;28;20511;-81
2022/11/28 11:14:06;;;;;;;1.55;1.50;;;;;;;12.30;75.99;101099.34;5161883;27;20387;-83
2022/11/28 11:16:54;;;;;;;0.17;0.17;;;;;;;12.39;76.75;101097.41;5150234;27;20031;-81
2022/11/28 11:22:17;;;;;;;0.47;0.47;;;;;;;12.38;76.78;101093.00;5109468;27;20371;-82
2022/11/28 11:25:02;;;;;;;3.58;1.40;;;;;;;12.32;76.50;101095.78;5057340;28;20044;-82
2022/11/28 11:27:30;;;;;;;0.13;0.13;;;;;;;12.27;76.90;101094.13;5055618;28;20041;-82
2022/11/28 11:29:56;;;;;;;1.15;1.15;;;;;;;12.22;76.84;101093.31;5057335;28;20017;-82
2022/11/28 11:32:26;;;;;;;0.38;0.38;;;;;;;12.20;76.79;101089.84;5062304;28;20052;-81
2022/11/28 11:34:54;;;;;;;1.17;0.75;;;;;;;12.16;76.65;101084.63;5051712;28;20040;-80
2022/11/28 11:37:37;;;;;;;0.20;0.20;;;;;;;12.23;76.68;101075.63;5055974;28;20037;-81
2022/11/28 11:42:59;;;;;;;0.30;0.30;;;;;;;12.21;76.56;101082.75;5120662;27;20497;-79
2022/11/28 11:45:34;;;;;;;0.68;0.68;;;;;;;12.25;76.94;101072.03;5113814;28;20438;-79
2022/11/28 11:48:02;;;;;;;0.50;0.50;;;;;;;12.25;76.66;101074.69;5095331;28;20040;-79
2022/11/28 11:50:30;;;;;;;0.30;0.30;;;;;;;12.28;76.65;101079.03;5091255;28;20085;-79
2022/11/28 11:53:12;;;;;;;0.50;0.50;;;;;;;12.39;76.51;101086.78;5105767;28;20023;-80
2022/11/28 11:55:50;;;;;;;2.47;0.88;;;;;;;12.37;76.76;101075.28;5098146;28;20028;-79
2022/11/28 11:58:25;;;;;;;0.10;0.10;;;;;;;12.39;76.29;101074.34;5100229;28;20027;-79
2022/11/28 12:00:55;;;;;;;0.50;0.50;;;;;;;12.40;76.39;101077.88;5107407;28;20032;-79
2022/11/28 12:03:53;;;;;;;1.38;1.33;;;;;;;12.44;76.59;101077.75;5104954;28;20047;-79
2022/11/28 12:06:26;;;;;;;0.30;0.30;;;;;;;12.40;76.56;101073.44;5100591;28;20032;-80
2022/11/28 12:09:07;;;;;;;0.38;0.38;;;;;;;12.42;76.52;101073.41;5092578;28;20031;-79
2022/11/28 12:11:39;;;;;;;0.70;0.70;;;;;;;12.42;76.44;101076.06;5100710;28;20110;-79
2022/11/28 12:14:27;;;;;;;1.23;1.23;;;;;;;12.50;76.87;101074.09;5102326;28;20103;-84
2022/11/28 12:17:08;;;;;;;1.73;1.63;;;;;;;12.48;76.95;101075.91;5095537;28;20106;-81
2022/11/28 12:19:49;;;;;;;0.30;0.30;;;;;;;12.46;76.40;101083.94;5089449;28;20035;-82
2022/11/28 12:25:33;;;;;;;0.80;0.80;;;;;;;12.47;76.08;101087.44;5096189;27;20114;-80
2022/11/28 12:28:39;;;;;;;1.67;1.58;;;;;;;12.50;76.15;101089.16;5090502;28;20036;-81
2022/11/28 12:34:22;;;;;;;0.40;0.40;;;;;;;12.50;76.42;101087.38;5126713;27;20114;-81
2022/11/28 12:42:56;;;;;;;0.93;0.93;;;;;;;12.74;76.97;101109.81;5102686;27;1174527;-80
2022/11/28 12:48:24;;;;;;;3.60;1.83;;;;;;;12.82;76.00;101108.75;5120545;27;20703;-80
2022/11/28 12:51:24;;;;;;;0.20;0.20;;;;;;;12.83;76.29;101107.84;5121555;27;20081;-80
2022/11/28 12:54:21;;;;;;;0.20;0.20;;;;;;;12.83;75.91;101103.41;5101952;28;20035;-80
2022/11/28 12:57:03;;;;;;;0.55;0.55;;;;;;;12.86;76.60;101097.13;5099243;28;20040;-80
2022/11/28 13:02:30;;;;;;;0.35;0.35;;;;;;;12.92;76.42;101092.53;5112090;27;20381;-81
2022/11/28 13:08:13;;;;;;;0.40;0.40;;;;;;;12.90;76.08;101110.31;5098412;27;20760;-81
2022/11/28 13:13:26;;;;;;;0.10;0.10;;;;;;;12.87;75.81;101123.72;5115461;27;1173774;-80
2022/11/28 13:19:02;;;;;;;0.80;0.80;;;;;;;12.86;75.63;101123.72;5074691;28;20389;-80
2022/11/28 13:21:41;;;;;;;0.20;0.20;;;;;;;12.87;75.56;101121.03;5066253;28;20455;-80
2022/11/28 13:24:46;;;;;;;0.77;0.77;;;;;;;12.88;75.80;101125.44;5056885;28;20033;-80
2022/11/28 13:27:40;;;;;;;0.63;0.63;;;;;;;12.91;75.81;101117.38;5069537;28;20074;-80
2022/11/28 13:30:19;;;;;;;0.40;0.35;;;;;;;12.91;75.25;101127.13;5044727;28;20049;-80
2022/11/28 13:35:37;;;;;;;1.80;1.75;;;;;;;12.84;75.70;101123.75;5113110;27;20380;-80
2022/11/28 13:38:29;;;;;;;0.57;0.57;;;;;;;12.90;75.96;101126.28;5112199;28;20024;-80
2022/11/28 13:41:05;;;;;;;0.50;0.50;;;;;;;12.88;75.30;101122.75;5096311;28;20387;-80
2022/11/28 13:44:04;;;;;;;0.63;0.63;;;;;;;12.91;75.39;101132.44;5092247;28;20368;-80